Time;durP1;ratioP1;P1;durP2;ratioP2;P2;SDS_P1;SDS_P2;PMS_P1;PMS_P2;Temp;Humidity;BMP_temperature;BMP_pressure;BME280_temperature;BME280_humidity;BME280_pressure;Samples;Min_cycle;Max_cycle;Signal;HPM_P1;HPM_P2
2022/06/15 00:01:14;;;;;;;4.37;2.33;;;10.80;1.00;;;;;;5084720;28;20865;-67
2022/06/15 00:03:40;;;;;;;3.53;2.33;;;10.70;1.00;;;;;;5083801;28;20413;-67
2022/06/15 00:06:14;;;;;;;5.27;2.57;;;10.70;1.00;;;;;;5084677;28;20209;-68
2022/06/15 00:08:42;;;;;;;3.90;2.87;;;10.70;1.60;;;;;;5084277;28;20652;-70
2022/06/15 00:11:15;;;;;;;2.77;2.47;;;10.60;1.00;;;;;;5084892;28;20185;-70
2022/06/15 00:13:41;;;;;;;3.77;2.47;;;10.60;1.00;;;;;;5083612;28;20177;-70
2022/06/15 00:16:06;;;;;;;2.50;2.30;;;10.60;1.00;;;;;;5084532;28;20185;-69
2022/06/15 00:18:34;;;;;;;4.37;2.53;;;10.60;1.00;;;;;;5066187;28;20219;-67
2022/06/15 00:20:59;;;;;;;5.60;2.70;;;10.60;6.00;;;;;;5066496;28;20181;-68
2022/06/15 00:23:27;;;;;;;5.03;2.70;;;10.60;1.00;;;;;;5084681;28;20187;-70
2022/06/15 00:25:53;;;;;;;3.83;2.60;;;10.50;1.00;;;;;;5083669;28;20204;-68
2022/06/15 00:28:20;;;;;;;2.90;2.67;;;10.40;6.90;;;;;;5084536;28;20201;-66
2022/06/15 00:30:49;;;;;;;3.67;2.87;;;10.50;20.10;;;;;;5084459;28;20239;-70
2022/06/15 00:33:15;;;;;;;4.80;3.10;;;10.50;14.60;;;;;;5084219;28;20513;-69
2022/06/15 00:35:40;;;;;;;3.77;2.30;;;10.40;20.90;;;;;;5083502;28;20243;-68
2022/06/15 00:38:07;;;;;;;3.23;2.50;;;10.40;28.80;;;;;;5084150;28;20204;-69
2022/06/15 00:40:34;;;;;;;4.13;2.53;;;10.40;23.80;;;;;;5084200;28;20181;-72
2022/06/15 00:43:00;;;;;;;4.97;2.47;;;10.40;25.10;;;;;;5084421;28;20173;-67
2022/06/15 00:45:26;;;;;;;6.43;2.67;;;10.40;26.30;;;;;;5083633;28;20185;-67
2022/06/15 00:47:52;;;;;;;5.70;2.97;;;10.40;21.30;;;;;;5083636;28;20217;-68
2022/06/15 00:50:23;;;;;;;3.27;2.57;;;10.40;25.60;;;;;;5084643;28;20192;-69
2022/06/15 00:53:05;;;;;;;3.90;2.47;;;10.40;29.70;;;;;;5084498;28;20188;-69
2022/06/15 00:55:34;;;;;;;5.20;2.87;;;10.40;26.70;;;;;;5083558;28;20659;-70
2022/06/15 00:58:03;;;;;;;4.37;2.63;;;10.40;10.20;;;;;;5083958;28;20236;-69
2022/06/15 01:00:29;;;;;;;4.37;2.90;;;10.40;7.30;;;;;;5084141;28;20181;-67
2022/06/15 01:02:55;;;;;;;6.73;2.90;;;10.30;14.20;;;;;;5083977;28;20217;-68
2022/06/15 01:05:39;;;;;;;3.17;2.60;;;10.30;18.00;;;;;;5083588;28;20614;-67
2022/06/15 01:08:33;;;;;;;4.90;2.87;;;10.30;15.60;;;;;;5083700;28;20200;-68
2022/06/15 01:11:49;;;;;;;5.50;2.77;;;10.30;19.90;;;;;;5083972;28;20264;-67
2022/06/15 01:14:32;;;;;;;4.17;2.70;;;10.30;29.10;;;;;;5044480;28;20185;-68
2022/06/15 01:17:41;;;;;;;6.63;2.90;;;10.20;18.00;;;;;;5083943;28;20311;-70
2022/06/15 01:20:55;;;;;;;5.03;2.80;;;10.20;18.60;;;;;;5048563;28;20212;-68
2022/06/15 01:23:48;;;;;;;4.20;2.43;;;10.10;24.20;;;;;;5081517;28;20350;-67
2022/06/15 01:26:33;;;;;;;5.00;2.70;;;10.10;26.80;;;;;;5087611;28;20208;-69
2022/06/15 01:29:39;;;;;;;7.50;2.73;;;10.10;26.20;;;;;;5087387;28;20603;-69
2022/06/15 01:32:16;;;;;;;3.70;2.80;;;10.00;38.60;;;;;;5079773;28;20228;-69
2022/06/15 01:35:00;;;;;;;4.33;2.73;;;10.00;44.00;;;;;;5086976;28;20208;-66
2022/06/15 01:37:39;;;;;;;2.93;2.60;;;10.00;43.60;;;;;;5087516;28;20278;-69
2022/06/15 01:40:27;;;;;;;4.73;2.57;;;10.00;40.80;;;;;;5087109;28;20176;-69
2022/06/15 01:43:17;;;;;;;4.00;2.40;;;10.00;51.90;;;;;;5087386;28;20593;-71
2022/06/15 01:45:46;;;;;;;4.40;3.00;;;9.90;57.50;;;;;;5086338;28;20185;-70
2022/06/15 01:48:14;;;;;;;3.57;2.70;;;9.90;56.90;;;;;;5086827;28;20223;-71
2022/06/15 01:50:52;;;;;;;4.03;2.67;;;9.90;58.90;;;;;;5087684;28;20184;-69
2022/06/15 01:53:47;;;;;;;4.07;2.60;;;9.80;66.30;;;;;;5087485;28;20191;-69
2022/06/15 01:56:24;;;;;;;3.37;2.27;;;9.80;62.50;;;;;;5085245;28;20192;-70
2022/06/15 01:59:30;;;;;;;4.07;2.63;;;9.80;58.20;;;;;;5086730;28;20729;-69
2022/06/15 02:02:14;;;;;;;3.90;2.70;;;9.80;63.10;;;;;;5086577;28;20193;-69
2022/06/15 02:04:54;;;;;;;3.17;2.60;;;9.80;66.80;;;;;;5085985;28;20663;-69
2022/06/15 02:07:48;;;;;;;3.47;2.63;;;9.80;69.10;;;;;;5087342;28;20223;-69
2022/06/15 02:10:32;;;;;;;3.60;2.60;;;9.80;77.70;;;;;;5086793;28;20173;-69
2022/06/15 02:13:01;;;;;;;3.93;2.50;;;9.70;60.30;;;;;;5087323;28;20274;-66
2022/06/15 02:15:29;;;;;;;3.77;3.23;;;9.70;75.90;;;;;;5086905;28;20868;-69
2022/06/15 02:18:00;;;;;;;4.67;3.07;;;9.70;79.10;;;;;;5086363;28;20675;-69
2022/06/15 02:20:30;;;;;;;3.47;2.53;;;9.70;79.60;;;;;;5087104;28;20201;-68
2022/06/15 02:23:00;;;;;;;3.13;2.70;;;9.60;83.50;;;;;;5086449;28;20177;-70
2022/06/15 02:25:30;;;;;;;3.37;2.70;;;9.60;85.70;;;;;;5086156;28;20695;-71
2022/06/15 02:27:56;;;;;;;6.23;3.07;;;9.60;87.20;;;;;;5086536;28;20305;-71
2022/06/15 02:30:26;;;;;;;4.80;2.90;;;9.60;92.20;;;;;;5086695;28;20201;-71
2022/06/15 02:32:52;;;;;;;3.70;2.80;;;9.60;90.70;;;;;;5086801;28;20177;-69
2022/06/15 02:35:18;;;;;;;4.90;2.77;;;9.50;92.40;;;;;;5086080;28;20623;-67
2022/06/15 02:37:45;;;;;;;3.70;2.83;;;9.50;94.50;;;;;;5086027;28;20258;-69
2022/06/15 02:40:18;;;;;;;6.33;3.50;;;9.50;99.90;;;;;;5086497;28;20180;-69
2022/06/15 02:42:45;;;;;;;6.57;3.03;;;9.40;99.90;;;;;;5067972;28;20224;-71
2022/06/15 02:45:34;;;;;;;4.07;3.10;;;9.40;99.90;;;;;;5085782;28;20641;-69
2022/06/15 02:48:01;;;;;;;4.33;2.90;;;9.40;99.90;;;;;;5067392;28;20244;-67
2022/06/15 02:50:33;;;;;;;4.83;3.10;;;9.50;99.90;;;;;;5086418;28;20787;-68
2022/06/15 02:53:06;;;;;;;4.93;3.40;;;9.40;99.90;;;;;;5086347;28;20212;-69
2022/06/15 02:55:33;;;;;;;5.70;3.10;;;9.50;99.90;;;;;;5085593;28;20207;-67
2022/06/15 02:58:04;;;;;;;5.30;3.10;;;9.40;99.90;;;;;;5085979;28;20284;-70
2022/06/15 03:00:31;;;;;;;5.07;3.27;;;9.40;99.90;;;;;;5086135;28;20188;-71
2022/06/15 03:02:56;;;;;;;4.63;2.87;;;9.40;99.90;;;;;;5086016;28;20557;-66
2022/06/15 03:05:22;;;;;;;7.07;3.30;;;9.40;99.90;;;;;;5085385;28;20207;-70
2022/06/15 03:07:48;;;;;;;4.97;3.10;;;9.40;99.90;;;;;;5085573;28;20252;-67
2022/06/15 03:10:13;;;;;;;5.90;3.70;;;9.40;99.90;;;;;;5085790;28;20223;-69
2022/06/15 03:12:39;;;;;;;4.87;3.40;;;9.40;99.90;;;;;;5086174;28;20181;-67
2022/06/15 03:15:05;;;;;;;3.53;2.93;;;9.40;99.90;;;;;;5085251;28;20185;-71
2022/06/15 03:17:30;;;;;;;4.27;2.93;;;9.40;99.90;;;;;;5085745;28;20209;-69
2022/06/15 03:19:56;;;;;;;5.73;3.10;;;9.40;99.90;;;;;;5085485;28;20192;-68
2022/06/15 03:22:22;;;;;;;6.13;3.57;;;9.40;99.90;;;;;;5085853;28;20219;-68
2022/06/15 03:24:48;;;;;;;5.90;3.00;;;9.50;99.90;;;;;;5084845;28;20188;-70
2022/06/15 03:27:13;;;;;;;3.90;2.67;;;9.50;99.90;;;;;;5085443;28;20287;-69
2022/06/15 03:29:40;;;;;;;4.57;2.90;;;9.50;99.90;;;;;;5085378;28;20189;-68
2022/06/15 03:32:06;;;;;;;4.70;3.10;;;9.50;99.90;;;;;;5085730;28;20201;-64
2022/06/15 03:34:31;;;;;;;3.67;2.80;;;9.60;99.90;;;;;;5084109;28;20653;-64
2022/06/15 03:36:57;;;;;;;3.87;2.57;;;9.60;96.80;;;;;;5085039;28;20209;-67
2022/06/15 03:39:22;;;;;;;3.77;2.80;;;9.60;95.30;;;;;;5085302;28;20189;-67
2022/06/15 03:41:48;;;;;;;5.00;2.87;;;9.60;94.40;;;;;;5085265;28;20188;-67
2022/06/15 03:44:14;;;;;;;4.77;2.90;;;9.60;85.10;;;;;;5084850;28;20184;-66
2022/06/15 03:46:39;;;;;;;4.30;3.50;;;9.70;80.30;;;;;;5084729;28;20217;-66
2022/06/15 03:49:06;;;;;;;5.43;2.93;;;9.70;60.60;;;;;;5085398;28;20185;-65
2022/06/15 03:51:31;;;;;;;4.97;2.90;;;9.70;56.10;;;;;;5085499;28;20191;-69
2022/06/15 03:53:57;;;;;;;3.83;3.00;;;9.70;60.10;;;;;;5084730;28;20551;-67
2022/06/15 03:56:38;;;;;;;4.50;2.63;;;9.70;54.80;;;;;;5085214;28;20212;-66
2022/06/15 03:59:03;;;;;;;5.63;3.13;;;9.80;53.30;;;;;;5085486;28;20201;-66
2022/06/15 04:01:29;;;;;;;3.50;2.87;;;9.90;53.70;;;;;;5084799;28;20474;-67
2022/06/15 04:03:54;;;;;;;3.93;2.90;;;9.90;48.60;;;;;;5084619;28;20189;-64
2022/06/15 04:06:21;;;;;;;3.07;2.80;;;10.00;43.30;;;;;;5084598;28;20214;-67
2022/06/15 04:08:46;;;;;;;5.67;2.40;;;10.00;31.10;;;;;;5085074;28;20697;-67
2022/06/15 04:11:58;;;;;;;3.47;2.53;;;10.00;30.30;;;;;;5084688;28;20181;-67
2022/06/15 04:14:01;;;;;;;3.00;2.47;;;10.10;23.50;;;;;;5083951;28;20558;-67
2022/06/15 04:16:28;;;;;;;4.37;2.70;;;10.10;26.20;;;;;;5084671;28;20205;-67
2022/06/15 04:18:53;;;;;;;3.47;2.60;;;10.20;24.90;;;;;;5085017;28;20208;-67
2022/06/15 04:21:19;;;;;;;3.73;2.80;;;10.30;18.50;;;;;;5084604;28;20193;-70
2022/06/15 04:23:45;;;;;;;4.37;2.67;;;10.40;12.80;;;;;;5084695;28;20188;-65
2022/06/15 04:26:10;;;;;;;4.70;2.67;;;10.40;7.40;;;;;;5084237;28;20477;-66
2022/06/15 04:28:39;;;;;;;2.47;2.00;;;10.50;3.40;;;;;;5084733;28;20271;-67
2022/06/15 04:31:05;;;;;;;3.83;2.43;;;10.60;1.00;;;;;;5084484;28;20648;-66
2022/06/15 04:33:30;;;;;;;3.90;2.57;;;10.70;1.00;;;;;;5084411;28;20220;-73
2022/06/15 04:35:56;;;;;;;4.53;2.67;;;10.70;1.00;;;;;;5084280;28;20528;-65
2022/06/15 04:38:22;;;;;;;7.17;3.00;;;10.90;1.00;;;;;;5084213;28;20236;-67
2022/06/15 04:40:48;;;;;;;3.73;2.60;;;11.00;1.00;;;;;;5084453;28;20262;-69
2022/06/15 04:43:13;;;;;;;3.87;2.90;;;11.00;1.00;;;;;;5084412;28;20192;-69
2022/06/15 04:45:39;;;;;;;4.30;2.50;;;11.20;1.00;;;;;;5083218;28;20589;-69
2022/06/15 04:48:06;;;;;;;3.63;2.23;;;11.30;1.00;;;;;;5083318;28;20616;-68
2022/06/15 04:50:32;;;;;;;5.97;2.50;;;11.30;1.00;;;;;;5084052;28;20196;-66
2022/06/15 04:52:57;;;;;;;4.73;2.67;;;11.40;1.00;;;;;;5084592;28;20180;-65
2022/06/15 04:55:24;;;;;;;4.70;2.43;;;11.60;1.00;;;;;;5083205;28;20191;-67
2022/06/15 04:57:58;;;;;;;3.17;1.77;;;12.30;1.00;;;;;;5084525;28;20292;-68
2022/06/15 05:00:26;;;;;;;2.72;1.65;;;13.80;1.00;;;;;;5065898;28;20209;-65
2022/06/15 05:02:51;;;;;;;3.03;1.60;;;15.70;1.00;;;;;;5084306;28;20249;-71
2022/06/15 05:05:18;;;;;;;2.90;1.50;;;17.20;1.00;;;;;;5083199;28;20680;-66
2022/06/15 05:07:45;;;;;;;5.13;1.50;;;18.50;1.00;;;;;;5081209;28;21030;-70
2022/06/15 05:10:14;;;;;;;5.50;1.38;;;19.60;1.00;;;;;;5082854;28;21542;-70
2022/06/15 05:12:39;;;;;;;3.20;1.50;;;20.90;1.00;;;;;;5083448;28;20177;-67
2022/06/15 05:15:06;;;;;;;1.67;1.10;;;21.80;99.90;;;;;;5082391;28;20184;-66
2022/06/15 05:17:32;;;;;;;2.42;1.00;;;22.70;99.90;;;;;;5083617;28;20908;-69
2022/06/15 05:19:57;;;;;;;2.60;1.42;;;23.70;99.90;;;;;;5083160;28;20688;-69
2022/06/15 05:22:23;;;;;;;2.53;0.90;;;24.40;94.20;;;;;;5084098;28;20188;-71
2022/06/15 05:24:48;;;;;;;2.97;1.10;;;24.60;42.60;;;;;;5082444;28;20188;-66
2022/06/15 05:27:14;;;;;;;3.03;1.25;;;25.10;20.80;;;;;;5083016;28;20538;-68
2022/06/15 05:29:40;;;;;;;1.30;1.00;;;25.30;6.10;;;;;;5083898;28;20181;-68
2022/06/15 05:32:07;;;;;;;2.25;1.40;;;25.20;1.00;;;;;;5083312;28;20177;-72
2022/06/15 05:34:33;;;;;;;3.05;1.40;;;25.30;1.00;;;;;;5082941;28;20269;-65
2022/06/15 05:36:59;;;;;;;1.98;1.40;;;25.30;1.00;;;;;;5083247;28;20973;-70
2022/06/15 05:39:25;;;;;;;2.65;1.60;;;25.10;1.00;;;;;;5065223;28;20181;-67
2022/06/15 05:41:51;;;;;;;2.90;1.63;;;24.90;1.00;;;;;;5083303;28;20223;-67
2022/06/15 05:46:58;;;;;;;2.33;1.30;;;25.10;1.00;;;;;;5082903;28;20265;-65
2022/06/15 05:49:24;;;;;;;3.15;1.17;;;25.70;1.00;;;;;;5083424;28;21535;-66
2022/06/15 05:51:50;;;;;;;2.40;1.17;;;26.10;1.00;;;;;;5083014;28;20655;-70
2022/06/15 05:54:15;;;;;;;2.92;1.40;;;26.30;1.00;;;;;;5082624;28;20173;-67
2022/06/15 05:56:41;;;;;;;3.13;1.13;;;26.50;1.00;;;;;;5064814;28;20212;-66
2022/06/15 05:59:07;;;;;;;1.55;1.13;;;26.90;1.00;;;;;;5086298;28;20188;-67
2022/06/15 06:01:34;;;;;;;2.22;1.35;;;27.40;1.00;;;;;;5086835;28;20201;-66
2022/06/15 06:04:00;;;;;;;3.33;1.55;;;27.80;1.00;;;;;;5067200;28;20275;-67
2022/06/15 06:06:28;;;;;;;3.40;1.55;;;27.80;1.00;;;;;;5068640;28;20218;-67
2022/06/15 06:08:53;;;;;;;3.67;1.75;;;28.00;1.00;;;;;;5087723;28;20165;-66
2022/06/15 06:11:19;;;;;;;3.78;1.27;;;27.90;1.00;;;;;;5086738;28;20173;-65
2022/06/15 06:13:46;;;;;;;3.00;1.45;;;28.00;1.00;;;;;;5086546;28;20177;-67
2022/06/15 06:16:12;;;;;;;2.95;1.55;;;27.50;1.00;;;;;;5086720;28;20177;-70
2022/06/15 06:18:37;;;;;;;1.88;1.27;;;27.20;1.00;;;;;;5087103;28;20215;-67
2022/06/15 06:21:05;;;;;;;3.70;1.30;;;27.40;1.00;;;;;;5068112;28;20191;-68
2022/06/15 06:23:34;;;;;;;4.18;1.33;;;27.90;1.00;;;;;;5086796;28;20732;-67
2022/06/15 06:26:00;;;;;;;2.20;1.25;;;28.50;1.00;;;;;;5086611;28;20231;-68
2022/06/15 06:28:27;;;;;;;2.15;1.65;;;28.40;1.00;;;;;;5086829;28;20630;-66
2022/06/15 06:30:53;;;;;;;4.57;1.70;;;28.40;1.00;;;;;;5086550;28;20631;-65
2022/06/15 06:33:18;;;;;;;3.92;1.50;;;28.20;1.00;;;;;;5087072;28;20209;-65
2022/06/15 06:35:45;;;;;;;2.78;1.30;;;27.90;1.00;;;;;;5068625;28;20235;-67
2022/06/15 06:38:12;;;;;;;4.00;1.58;;;28.40;1.00;;;;;;5086500;28;20205;-67
2022/06/15 06:40:38;;;;;;;2.78;1.45;;;28.60;1.00;;;;;;5086707;28;20268;-67
2022/06/15 06:43:04;;;;;;;3.65;1.40;;;28.40;1.00;;;;;;5086236;28;20633;-67
2022/06/15 06:45:30;;;;;;;2.67;1.35;;;28.40;1.00;;;;;;5067870;28;20243;-66
2022/06/15 06:47:56;;;;;;;3.95;1.40;;;28.30;1.00;;;;;;5086159;28;20242;-66
2022/06/15 06:50:23;;;;;;;3.55;1.25;;;28.20;1.00;;;;;;5086218;28;20177;-68
2022/06/15 06:52:49;;;;;;;3.50;1.45;;;28.40;1.00;;;;;;5086688;28;20666;-70
2022/06/15 06:55:15;;;;;;;2.05;1.23;;;29.30;1.00;;;;;;5085699;28;20189;-67
2022/06/15 06:57:40;;;;;;;3.60;1.55;;;29.90;1.00;;;;;;5067881;28;20203;-68
2022/06/15 07:00:07;;;;;;;3.25;1.42;;;30.10;1.00;;;;;;5086573;28;20664;-67
2022/06/15 07:02:32;;;;;;;2.40;1.67;;;29.40;1.00;;;;;;5086096;28;21006;-67
2022/06/15 07:04:58;;;;;;;2.67;1.20;;;29.70;1.00;;;;;;5086086;28;20676;-66
2022/06/15 07:07:23;;;;;;;3.13;1.50;;;30.30;1.00;;;;;;5085512;28;20224;-71
2022/06/15 07:09:49;;;;;;;2.33;1.30;;;30.20;1.00;;;;;;5085418;28;20654;-65
2022/06/15 07:12:15;;;;;;;3.72;1.60;;;29.70;1.00;;;;;;5087832;28;20570;-67
2022/06/15 07:14:40;;;;;;;6.15;1.55;;;29.80;1.00;;;;;;5086372;28;20187;-66
2022/06/15 07:17:06;;;;;;;3.83;1.60;;;29.50;1.00;;;;;;5085246;28;20201;-69
2022/06/15 07:19:31;;;;;;;2.55;1.60;;;29.90;1.00;;;;;;5086087;28;20636;-67
2022/06/15 07:21:57;;;;;;;2.55;1.45;;;30.70;1.00;;;;;;5085558;28;20173;-66
2022/06/15 07:24:22;;;;;;;2.42;1.30;;;30.90;1.00;;;;;;5085520;28;20246;-67
2022/06/15 07:26:48;;;;;;;2.40;1.30;;;30.20;1.00;;;;;;5085096;28;20336;-68
2022/06/15 07:29:18;;;;;;;2.25;1.70;;;29.20;1.00;;;;;;5086018;28;20212;-66
2022/06/15 07:31:47;;;;;;;2.17;1.50;;;27.90;1.00;;;;;;5085537;28;20185;-67
2022/06/15 07:34:13;;;;;;;3.25;1.20;;;26.30;1.00;;;;;;5085162;28;20181;-65
2022/06/15 07:36:46;;;;;;;2.53;1.25;;;;;;;;;;5084945;28;20574;-67
2022/06/15 07:39:12;;;;;;;2.45;1.25;;;;;;;;;;5085734;28;20177;-67
2022/06/15 07:41:38;;;;;;;2.50;1.17;;;;;;;;;;5085138;28;20418;-66
2022/06/15 07:44:04;;;;;;;3.75;1.20;;;;;;;;;;5085346;28;20655;-66
2022/06/15 07:46:29;;;;;;;2.28;1.10;;;25.00;1.00;;;;;;5084477;28;20277;-66
2022/06/15 07:51:43;;;;;;;1.92;1.13;;;;;;;;;;5084808;28;20214;-67
2022/06/15 07:54:10;;;;;;;3.08;1.10;;;;;;;;;;5084721;28;20636;-65
2022/06/15 07:56:38;;;;;;;1.77;0.90;;;22.40;1.00;;;;;;5084710;28;20660;-66
2022/06/15 07:59:04;;;;;;;2.70;1.05;;;22.60;1.00;;;;;;5085353;28;20169;-68
2022/06/15 08:01:30;;;;;;;1.77;1.00;;;22.40;1.00;;;;;;5084861;28;20629;-68
2022/06/15 08:03:56;;;;;;;2.50;1.17;;;22.40;1.00;;;;;;5084568;28;20231;-68
2022/06/15 08:06:23;;;;;;;2.38;1.30;;;22.30;1.00;;;;;;5084593;28;20228;-66
2022/06/15 08:08:49;;;;;;;1.90;1.08;;;22.30;1.00;;;;;;5084920;28;20191;-66
2022/06/15 08:11:15;;;;;;;4.15;1.50;;;22.30;1.00;;;;;;5084928;28;20173;-68
2022/06/15 08:13:41;;;;;;;4.47;1.30;;;22.40;1.00;;;;;;5084181;28;20184;-68
2022/06/15 08:16:07;;;;;;;2.67;1.10;;;22.30;1.00;;;;;;5084716;28;20619;-66
2022/06/15 08:18:38;;;;;;;2.67;1.00;;;22.30;1.00;;;;;;5066904;28;20242;-67
2022/06/15 08:21:09;;;;;;;3.35;1.25;;;22.20;1.00;;;;;;5084438;28;20181;-66
2022/06/15 08:23:37;;;;;;;3.75;1.30;;;22.20;1.00;;;;;;5084303;28;20191;-66
2022/06/15 08:26:08;;;;;;;1.67;1.02;;;22.10;1.00;;;;;;5084252;28;20272;-66
2022/06/15 08:28:38;;;;;;;2.80;1.05;;;22.20;1.00;;;;;;5084749;28;20184;-66
2022/06/15 08:31:04;;;;;;;4.90;1.30;;;22.10;1.00;;;;;;5084567;28;20191;-66
2022/06/15 08:33:30;;;;;;;2.67;1.35;;;22.30;1.00;;;;;;5084564;28;20188;-69
2022/06/15 08:35:55;;;;;;;3.20;1.30;;;22.30;1.00;;;;;;5083902;28;20582;-65
2022/06/15 08:38:23;;;;;;;2.55;1.20;;;22.30;1.00;;;;;;5084261;28;20250;-67
2022/06/15 08:40:54;;;;;;;3.50;1.40;;;22.40;1.00;;;;;;5084243;28;20200;-66
2022/06/15 08:43:43;;;;;;;1.40;1.00;;;22.40;1.00;;;;;;5084616;28;20444;-67
2022/06/15 08:46:40;;;;;;;2.97;1.15;;;22.40;1.00;;;;;;5084236;28;20234;-67
2022/06/15 08:49:22;;;;;;;1.95;1.15;;;22.30;1.00;;;;;;5056722;28;20203;-67
2022/06/15 08:51:58;;;;;;;1.63;0.85;;;22.30;1.00;;;;;;5083498;28;20173;-69
2022/06/15 08:54:27;;;;;;;1.95;1.10;;;22.30;1.00;;;;;;5083592;28;20183;-69
2022/06/15 08:57:23;;;;;;;2.00;1.02;;;22.40;1.00;;;;;;5084032;28;20200;-66
2022/06/15 08:59:57;;;;;;;2.47;1.17;;;22.50;1.00;;;;;;5032154;28;20188;-66
2022/06/15 09:02:36;;;;;;;2.97;1.10;;;22.50;1.00;;;;;;5084694;28;20235;-68
2022/06/15 09:05:27;;;;;;;3.47;1.13;;;22.50;1.00;;;;;;5084199;28;20264;-67
2022/06/15 09:08:23;;;;;;;2.85;1.30;;;22.50;1.00;;;;;;5085287;28;20229;-68
2022/06/15 09:11:11;;;;;;;3.33;1.08;;;22.50;1.00;;;;;;5084410;28;20217;-68
2022/06/15 09:14:03;;;;;;;2.08;1.00;;;22.50;1.00;;;;;;5082789;28;20184;-71
2022/06/15 09:16:41;;;;;;;2.95;1.10;;;22.50;1.00;;;;;;5083571;28;20259;-66
2022/06/15 09:19:14;;;;;;;2.45;1.08;;;22.60;1.00;;;;;;5088413;28;20203;-67
2022/06/15 09:21:43;;;;;;;1.80;1.00;;;22.50;1.00;;;;;;5084361;28;20203;-66
2022/06/15 09:24:14;;;;;;;2.90;1.27;;;22.50;1.00;;;;;;5083851;28;20231;-69
2022/06/15 09:26:46;;;;;;;3.45;1.10;;;22.40;1.00;;;;;;5066598;28;20684;-69
2022/06/15 09:29:19;;;;;;;3.17;1.05;;;22.50;1.00;;;;;;5085944;28;20192;-67
2022/06/15 09:32:07;;;;;;;4.30;1.00;;;22.60;1.00;;;;;;5085460;28;20189;-69
2022/06/15 09:34:36;;;;;;;2.65;1.30;;;22.70;1.00;;;;;;5089537;28;20177;-67
2022/06/15 09:37:09;;;;;;;2.28;1.02;;;22.80;1.00;;;;;;5091289;28;20207;-67
2022/06/15 09:39:36;;;;;;;3.00;1.20;;;22.70;1.00;;;;;;5090083;28;20181;-68
2022/06/15 09:42:21;;;;;;;1.85;1.10;;;22.70;1.00;;;;;;5089429;28;20165;-69
2022/06/15 09:44:59;;;;;;;2.42;1.25;;;22.60;1.00;;;;;;5072336;28;20181;-66
2022/06/15 09:47:31;;;;;;;2.72;1.10;;;22.80;1.00;;;;;;5070347;28;20219;-66
2022/06/15 09:50:37;;;;;;;3.55;1.42;;;22.90;1.00;;;;;;5069483;28;20173;-67
2022/06/15 09:53:31;;;;;;;4.25;1.40;;;23.10;1.00;;;;;;5087552;28;20181;-67
2022/06/15 09:56:03;;;;;;;3.30;0.98;;;23.10;1.00;;;;;;5087471;28;20586;-63
2022/06/15 09:58:38;;;;;;;1.75;1.08;;;;;;;;;;5087038;28;20311;-71
2022/06/15 10:01:06;;;;;;;2.00;1.20;;;23.10;1.00;;;;;;5087828;28;20260;-64
2022/06/15 10:03:36;;;;;;;4.38;1.35;;;23.20;1.00;;;;;;5087067;28;20268;-66
2022/06/15 10:06:15;;;;;;;1.90;0.90;;;23.20;1.00;;;;;;5087467;28;20272;-69
2022/06/15 10:08:40;;;;;;;2.20;0.93;;;23.20;1.00;;;;;;5086820;28;20256;-67
2022/06/15 10:11:15;;;;;;;4.47;1.38;;;23.20;1.00;;;;;;5087694;28;20259;-68
2022/06/15 10:13:41;;;;;;;2.47;1.30;;;23.10;1.00;;;;;;5086149;28;20172;-67
2022/06/15 10:16:30;;;;;;;3.40;1.00;;;23.00;1.00;;;;;;5070255;28;20180;-65
2022/06/15 10:19:06;;;;;;;1.70;0.90;;;22.80;1.00;;;;;;5087881;28;20246;-70
2022/06/15 10:21:34;;;;;;;1.50;0.90;;;22.90;1.00;;;;;;5087671;28;20177;-63
2022/06/15 10:24:17;;;;;;;2.45;1.00;;;23.00;1.00;;;;;;5086068;28;20173;-66
2022/06/15 10:27:41;;;;;;;2.30;1.27;;;23.10;1.00;;;;;;5086875;28;20203;-67
2022/06/15 10:30:06;;;;;;;2.40;0.95;;;23.40;1.00;;;;;;5017181;28;21103;-67
2022/06/15 10:32:33;;;;;;;2.95;0.93;;;23.60;1.00;;;;;;5086890;28;20189;-67
2022/06/15 10:35:19;;;;;;;1.50;1.00;;;23.70;1.00;;;;;;5086250;28;20180;-65
2022/06/15 10:37:48;;;;;;;3.40;0.90;;;23.60;1.00;;;;;;5085944;28;20258;-65
2022/06/15 10:40:31;;;;;;;1.13;0.90;;;23.70;1.00;;;;;;5086654;28;20556;-66
2022/06/15 10:43:13;;;;;;;3.25;1.00;;;23.70;1.00;;;;;;5086267;28;20220;-65
2022/06/15 10:45:44;;;;;;;2.67;0.90;;;23.70;1.00;;;;;;5086154;28;20545;-69
2022/06/15 10:48:15;;;;;;;2.25;0.90;;;23.70;1.00;;;;;;5085823;28;20216;-64
2022/06/15 10:50:52;;;;;;;1.17;0.80;;;23.70;1.00;;;;;;5086599;28;20553;-67
2022/06/15 10:53:36;;;;;;;2.42;1.13;;;23.70;1.00;;;;;;5086443;28;21482;-70
2022/06/15 11:02:06;;;;;;;2.17;1.02;;;23.70;1.00;;;;;;5086910;28;20347;-66
2022/06/15 11:04:50;;;;;;;2.72;1.20;;;24.00;1.00;;;;;;5067393;28;20216;-65
2022/06/15 11:07:27;;;;;;;1.90;0.90;;;24.20;1.00;;;;;;5085782;28;20295;-67
2022/06/15 11:09:55;;;;;;;1.17;0.90;;;23.90;1.00;;;;;;5086020;28;20542;-65
2022/06/15 11:12:49;;;;;;;4.10;1.15;;;24.10;1.00;;;;;;5086033;28;20185;-67
2022/06/15 11:15:14;;;;;;;3.22;1.30;;;24.20;1.00;;;;;;5082832;28;20189;-65
2022/06/15 11:18:01;;;;;;;5.93;1.23;;;24.40;1.00;;;;;;5085164;28;20211;-67
2022/06/15 11:20:35;;;;;;;2.80;0.85;;;24.30;1.00;;;;;;5086638;28;20176;-66
2022/06/15 11:23:28;;;;;;;1.60;1.17;;;24.30;1.00;;;;;;5085302;28;20238;-66
2022/06/15 11:25:56;;;;;;;5.07;1.15;;;24.30;1.00;;;;;;5085371;28;20195;-66
2022/06/15 11:28:37;;;;;;;3.53;1.13;;;24.30;1.00;;;;;;5085006;28;20208;-65
2022/06/15 11:31:09;;;;;;;1.63;0.93;;;24.50;1.00;;;;;;5086161;28;20176;-65
2022/06/15 11:33:47;;;;;;;1.67;1.13;;;24.60;1.00;;;;;;5084901;28;20645;-66
2022/06/15 11:36:41;;;;;;;1.58;1.23;;;24.50;1.00;;;;;;5085632;28;20181;-65
2022/06/15 11:39:15;;;;;;;3.40;1.35;;;24.50;1.00;;;;;;5064678;28;20575;-65
2022/06/15 11:42:02;;;;;;;2.20;1.17;;;24.60;1.00;;;;;;5085547;28;20173;-66
2022/06/15 11:44:34;;;;;;;2.72;1.63;;;24.60;1.00;;;;;;5084693;28;20188;-67
2022/06/15 11:47:27;;;;;;;1.70;1.10;;;24.70;1.00;;;;;;5085006;28;20243;-66
2022/06/15 11:49:59;;;;;;;1.95;1.02;;;24.80;1.00;;;;;;5085254;28;20832;-65
2022/06/15 11:52:46;;;;;;;2.47;1.00;;;24.80;1.00;;;;;;5085145;28;20298;-66
2022/06/15 11:55:20;;;;;;;2.08;1.10;;;24.90;1.00;;;;;;5083975;28;20183;-66
2022/06/15 11:57:51;;;;;;;2.22;1.10;;;24.90;1.00;;;;;;5084345;28;20228;-66
2022/06/15 12:00:41;;;;;;;2.90;1.15;;;25.20;1.00;;;;;;5085613;28;20184;-65
2022/06/15 12:03:44;;;;;;;3.25;2.38;;;25.10;1.00;;;;;;5084983;28;20184;-66
2022/06/15 12:06:21;;;;;;;2.30;1.10;;;25.20;1.00;;;;;;5085210;28;20180;-66
2022/06/15 12:09:15;;;;;;;1.88;1.00;;;25.20;1.00;;;;;;5084531;28;20264;-64
2022/06/15 12:14:47;;;;;;;1.15;0.93;;;25.20;1.00;;;;;;5084341;28;20698;-65
2022/06/15 12:17:25;;;;;;;1.60;1.20;;;25.30;1.00;;;;;;5084543;28;20200;-68
2022/06/15 12:20:03;;;;;;;2.17;1.23;;;25.30;1.00;;;;;;5084642;28;20195;-67
2022/06/15 12:22:47;;;;;;;1.60;0.90;;;25.30;1.00;;;;;;5085170;28;20180;-66
2022/06/15 12:25:24;;;;;;;2.15;1.00;;;25.00;1.00;;;;;;5084107;28;20238;-67
2022/06/15 12:27:54;;;;;;;7.13;6.43;;;25.10;1.00;;;;;;5083928;28;20259;-67
2022/06/15 12:30:29;;;;;;;4.40;1.30;;;;;;;;;;5087346;28;20177;-66
2022/06/15 12:33:10;;;;;;;1.85;1.13;;;25.50;1.00;;;;;;5084427;28;20180;-68
2022/06/15 12:36:17;;;;;;;1.33;1.10;;;25.60;1.00;;;;;;5086558;28;20543;-67
2022/06/15 12:39:09;;;;;;;1.50;1.20;;;25.60;1.00;;;;;;5089073;28;20173;-70
2022/06/15 12:44:57;;;;;;;3.17;1.10;;;25.60;1.00;;;;;;5087591;28;20247;-68
2022/06/15 12:51:27;;;;;;;3.78;1.15;;;25.40;1.00;;;;;;5092162;28;20195;-70
2022/06/15 12:54:16;;;;;;;1.92;1.02;;;25.50;1.00;;;;;;5090826;28;20605;-69
2022/06/15 12:57:08;;;;;;;2.78;1.00;;;25.70;1.00;;;;;;5085617;28;20290;-68
2022/06/15 12:59:49;;;;;;;2.40;1.35;;;26.00;1.00;;;;;;5094335;28;20181;-69
2022/06/15 13:02:42;;;;;;;3.63;1.40;;;26.00;1.00;;;;;;5087969;28;20184;-68
2022/06/15 13:05:19;;;;;;;1.90;1.40;;;26.00;1.00;;;;;;5090022;28;20179;-69
2022/06/15 13:08:31;;;;;;;1.95;1.20;;;26.00;1.00;;;;;;5073156;28;20212;-69
2022/06/15 13:11:07;;;;;;;1.67;1.00;;;26.10;1.00;;;;;;5097572;28;20181;-69
2022/06/15 13:13:37;;;;;;;1.23;0.90;;;26.10;1.00;;;;;;5078690;28;20180;-70
2022/06/15 13:16:14;;;;;;;2.08;1.35;;;26.20;1.00;;;;;;5097465;28;20609;-68
2022/06/15 13:18:53;;;;;;;3.15;2.55;;;26.10;1.00;;;;;;5097525;28;20245;-69
2022/06/15 13:21:21;;;;;;;3.80;2.53;;;26.10;1.00;;;;;;5097284;28;20180;-69
2022/06/15 13:24:07;;;;;;;1.63;1.30;;;26.20;1.00;;;;;;5095845;28;20172;-68
2022/06/15 13:26:39;;;;;;;2.10;1.10;;;26.30;1.00;;;;;;5097883;28;20219;-69
2022/06/15 13:29:10;;;;;;;2.17;1.00;;;26.20;1.00;;;;;;5095008;28;20169;-68
2022/06/15 13:31:42;;;;;;;2.25;1.00;;;26.30;1.00;;;;;;5096662;28;20700;-69
2022/06/15 13:34:29;;;;;;;1.95;1.30;;;26.30;1.00;;;;;;5096174;28;20540;-68
2022/06/15 13:37:24;;;;;;;1.90;1.27;;;26.40;1.00;;;;;;5091027;28;20220;-67
2022/06/15 13:40:03;;;;;;;2.45;1.40;;;26.30;1.00;;;;;;5079353;28;20679;-67
2022/06/15 13:43:10;;;;;;;3.00;1.00;;;26.30;1.00;;;;;;5102672;28;20227;-70
2022/06/15 13:45:39;;;;;;;3.15;1.20;;;26.30;1.00;;;;;;5091282;28;20188;-68
2022/06/15 13:48:28;;;;;;;1.27;0.95;;;26.10;1.00;;;;;;5095332;28;20258;-69
2022/06/15 13:51:06;;;;;;;1.98;1.27;;;26.00;1.00;;;;;;5092782;28;20176;-69